Terminal Aerodrome Forecast
Issued by NWS

Home | Current Version | Previous Version | Text Only | Print | Product List | Glossary Off
Versions: 1 2 3 4 5 6 7 8 9 10 11 12 13 14 15 16 17 18 19

000
FTUS41 KCLE 300540
TAFFDY
TAF
KFDY 300540Z 3006/3106 VRB03KT 5SM BR VCSH SCT050 OVC100
      TEMPO 3011/3013 1 1/2SM BR
     FM301400 22010KT P6SM SCT050 BKN150
     FM310000 22005KT P6SM FEW150 SCT250=

USA.gov is the U.S. government's official web portal to all federal, state and local government web resources and services.